Time;durP1;ratioP1;P1;durP2;ratioP2;P2;SDS_P1;SDS_P2;PMS_P1;PMS_P2;Temp;Humidity;BMP_temperature;BMP_pressure;BME280_temperature;BME280_humidity;BME280_pressure;Samples;Min_cycle;Max_cycle;Signal;HPM_P1;HPM_P2
2023/07/26 00:01:09;;;;;;;13.05;2.55;;;14.00;99.90;;;;;;5071239;28;20040;-79
2023/07/26 00:03:58;;;;;;;10.27;2.00;;;14.00;99.90;;;;;;5070529;28;20635;-78
2023/07/26 00:06:44;;;;;;;9.00;2.35;;;14.10;99.90;;;;;;5052925;28;20498;-76
2023/07/26 00:09:30;;;;;;;6.00;1.27;;;14.00;99.90;;;;;;5070985;28;20047;-76
2023/07/26 00:12:16;;;;;;;12.30;2.75;;;14.00;99.90;;;;;;5070002;28;20053;-78
2023/07/26 00:15:02;;;;;;;6.90;1.63;;;13.90;99.90;;;;;;5070144;28;20049;-78
2023/07/26 00:17:48;;;;;;;9.30;2.08;;;13.80;99.90;;;;;;5055990;28;20056;-77
2023/07/26 00:20:35;;;;;;;7.68;1.95;;;13.80;99.90;;;;;;5052533;28;20504;-78
2023/07/26 00:23:21;;;;;;;6.00;1.55;;;13.80;99.90;;;;;;5071002;28;20051;-79
2023/07/26 00:26:07;;;;;;;10.82;2.53;;;13.80;99.90;;;;;;5070002;28;20048;-79
2023/07/26 00:28:53;;;;;;;9.27;1.50;;;13.80;99.90;;;;;;5053460;28;20093;-78
2023/07/26 00:31:39;;;;;;;5.72;1.77;;;13.80;99.90;;;;;;5070042;28;20162;-76
2023/07/26 00:34:25;;;;;;;6.10;1.50;;;13.90;99.90;;;;;;5070026;28;20135;-77
2023/07/26 00:37:11;;;;;;;14.73;2.30;;;13.90;99.90;;;;;;5070442;28;20052;-77
2023/07/26 00:39:57;;;;;;;7.18;1.98;;;14.00;99.90;;;;;;5069317;28;20109;-76
2023/07/26 00:42:43;;;;;;;12.20;2.58;;;14.10;99.90;;;;;;5069677;28;20055;-78
2023/07/26 00:45:30;;;;;;;6.95;2.10;;;14.10;99.90;;;;;;5069686;28;20190;-76
2023/07/26 00:48:16;;;;;;;6.13;1.70;;;14.20;99.90;;;;;;5068906;28;20052;-78
2023/07/26 00:51:04;;;;;;;7.60;1.58;;;14.20;99.90;;;;;;5068906;28;20048;-78
2023/07/26 00:53:50;;;;;;;8.98;2.97;;;14.10;99.90;;;;;;5070184;28;20059;-78
2023/07/26 00:56:37;;;;;;;6.40;1.77;;;14.10;99.90;;;;;;5054275;28;20057;-78
2023/07/26 00:59:23;;;;;;;6.85;2.47;;;14.10;99.90;;;;;;5069146;28;20059;-79
2023/07/26 01:02:09;;;;;;;10.07;3.10;;;14.10;99.90;;;;;;5055145;28;20153;-77
2023/07/26 01:04:56;;;;;;;7.40;1.60;;;14.10;99.90;;;;;;5070435;28;20249;-76
2023/07/26 01:08:13;;;;;;;7.10;2.53;;;14.00;99.90;;;;;;5069451;28;20041;-76
2023/07/26 01:11:08;;;;;;;7.78;2.22;;;14.00;99.90;;;;;;5070768;28;20059;-80
2023/07/26 01:14:12;;;;;;;5.18;1.60;;;13.90;99.90;;;;;;5069350;28;20048;-77
2023/07/26 01:16:59;;;;;;;7.07;2.10;;;13.90;99.90;;;;;;5072787;28;20052;-78
2023/07/26 01:19:45;;;;;;;9.15;2.25;;;14.00;99.90;;;;;;5050054;28;20165;-77
2023/07/26 01:22:31;;;;;;;9.43;2.35;;;14.00;99.90;;;;;;5048313;28;20067;-76
2023/07/26 01:25:17;;;;;;;8.85;2.30;;;13.90;99.90;;;;;;5049363;28;20073;-77
2023/07/26 01:28:03;;;;;;;10.65;2.30;;;13.90;99.90;;;;;;5050400;28;20052;-76
2023/07/26 01:30:50;;;;;;;11.30;3.33;;;13.80;99.90;;;;;;5049868;28;20049;-78
2023/07/26 01:33:37;;;;;;;9.65;2.25;;;13.80;99.90;;;;;;5049353;28;20059;-77
2023/07/26 01:36:24;;;;;;;12.40;2.85;;;13.70;99.90;;;;;;5050237;28;20048;-80
2023/07/26 01:39:11;;;;;;;11.43;2.08;;;13.70;99.90;;;;;;5050314;28;20508;-80
2023/07/26 01:41:58;;;;;;;6.13;1.65;;;13.60;99.90;;;;;;5049759;28;20099;-80
2023/07/26 01:44:44;;;;;;;8.80;2.85;;;13.60;99.90;;;;;;5050293;28;20041;-77
2023/07/26 01:47:30;;;;;;;7.45;2.85;;;13.60;99.90;;;;;;5050399;28;20045;-77
2023/07/26 01:50:16;;;;;;;7.85;2.42;;;13.60;99.90;;;;;;5050189;28;20151;-79
2023/07/26 01:53:02;;;;;;;6.10;2.00;;;13.60;99.90;;;;;;5050865;28;20045;-77
2023/07/26 01:55:48;;;;;;;9.18;2.22;;;13.60;99.90;;;;;;5052708;28;20412;-76
2023/07/26 01:58:34;;;;;;;8.77;1.95;;;13.60;99.90;;;;;;5053926;28;20045;-77
2023/07/26 02:01:21;;;;;;;7.18;1.95;;;13.60;99.90;;;;;;5054303;28;20397;-79
2023/07/26 02:04:07;;;;;;;5.28;1.85;;;13.50;99.90;;;;;;5052156;28;20052;-79
2023/07/26 02:06:53;;;;;;;5.97;2.22;;;13.50;99.90;;;;;;5054100;28;20132;-80
2023/07/26 02:09:39;;;;;;;5.75;1.70;;;13.50;99.90;;;;;;5052920;28;20056;-76
2023/07/26 02:12:26;;;;;;;8.93;2.28;;;13.50;99.90;;;;;;5055621;28;20056;-77
2023/07/26 02:15:12;;;;;;;4.30;1.38;;;13.50;99.90;;;;;;5056566;28;20131;-80
2023/07/26 02:17:58;;;;;;;7.53;2.05;;;13.50;99.90;;;;;;5059376;28;20064;-77
2023/07/26 02:20:44;;;;;;;9.98;2.40;;;13.50;99.90;;;;;;5041654;28;20080;-79
2023/07/26 02:23:30;;;;;;;6.80;1.77;;;13.40;99.90;;;;;;5074062;28;20044;-78
2023/07/26 02:26:16;;;;;;;6.75;1.70;;;13.40;99.90;;;;;;5074456;28;20060;-78
2023/07/26 02:29:02;;;;;;;6.18;1.80;;;13.40;99.90;;;;;;5072056;28;20036;-80
2023/07/26 02:31:48;;;;;;;8.98;2.20;;;13.40;99.90;;;;;;5071993;28;20048;-78
2023/07/26 02:34:36;;;;;;;5.47;1.73;;;13.30;99.90;;;;;;5071927;28;20056;-79
2023/07/26 02:37:22;;;;;;;5.25;1.42;;;13.30;99.90;;;;;;5056635;28;20446;-77
2023/07/26 02:40:09;;;;;;;5.93;1.20;;;13.30;99.90;;;;;;5072974;28;20137;-80
2023/07/26 02:42:55;;;;;;;8.23;1.67;;;13.30;99.90;;;;;;5071957;28;20488;-78
2023/07/26 02:45:42;;;;;;;7.32;1.88;;;13.30;99.90;;;;;;5072646;28;20052;-77
2023/07/26 02:48:28;;;;;;;6.30;1.55;;;13.30;99.90;;;;;;5054861;28;20049;-80
2023/07/26 02:51:14;;;;;;;6.80;3.25;;;13.30;99.90;;;;;;5071692;28;20084;-77
2023/07/26 02:54:00;;;;;;;6.05;2.00;;;13.30;99.90;;;;;;5071573;28;20063;-78
2023/07/26 02:56:46;;;;;;;8.48;1.73;;;13.30;99.90;;;;;;5054694;28;20053;-79
2023/07/26 02:59:32;;;;;;;5.03;1.58;;;13.30;99.90;;;;;;5055951;28;20041;-79
2023/07/26 03:02:20;;;;;;;4.75;1.88;;;13.30;99.90;;;;;;5071170;28;20048;-78
2023/07/26 03:05:06;;;;;;;8.95;1.60;;;13.30;99.90;;;;;;5051656;28;20112;-79
2023/07/26 03:07:52;;;;;;;7.97;2.30;;;13.40;99.90;;;;;;5071843;28;20053;-79
2023/07/26 03:10:38;;;;;;;7.75;2.03;;;13.30;99.90;;;;;;5071733;28;20052;-81
2023/07/26 03:13:24;;;;;;;11.27;2.00;;;13.30;99.90;;;;;;5071084;28;20048;-79
2023/07/26 03:16:10;;;;;;;10.50;1.95;;;13.30;99.90;;;;;;5071137;28;20045;-79
2023/07/26 03:18:56;;;;;;;11.02;2.33;;;13.20;99.90;;;;;;5052718;28;20113;-77
2023/07/26 03:21:42;;;;;;;8.57;2.13;;;13.20;99.90;;;;;;5070794;28;20152;-80
2023/07/26 03:24:28;;;;;;;8.13;3.05;;;13.20;99.90;;;;;;5070303;28;20048;-79
2023/07/26 03:27:14;;;;;;;8.70;2.28;;;13.20;99.90;;;;;;5053369;28;20052;-79
2023/07/26 03:30:01;;;;;;;8.32;2.80;;;13.20;99.90;;;;;;5070425;28;20078;-77
2023/07/26 03:32:47;;;;;;;11.65;2.38;;;13.20;99.90;;;;;;5070793;28;20053;-78
2023/07/26 03:35:33;;;;;;;9.02;2.47;;;13.20;99.90;;;;;;5070701;28;20052;-78
2023/07/26 03:38:19;;;;;;;8.18;2.45;;;13.20;99.90;;;;;;5071001;28;20419;-81
2023/07/26 03:41:05;;;;;;;6.70;2.03;;;13.20;99.90;;;;;;5071705;28;20052;-77
2023/07/26 03:43:51;;;;;;;10.13;2.50;;;13.10;99.90;;;;;;5075011;28;20063;-77
2023/07/26 03:46:37;;;;;;;7.90;1.92;;;13.10;99.90;;;;;;5090458;28;20052;-76
2023/07/26 03:49:23;;;;;;;11.68;2.40;;;13.10;99.90;;;;;;5091583;28;20113;-76
2023/07/26 03:52:09;;;;;;;6.50;2.20;;;13.10;99.90;;;;;;5091141;28;20048;-77
2023/07/26 03:54:55;;;;;;;9.88;2.20;;;13.10;99.90;;;;;;5072256;28;20047;-78
2023/07/26 03:57:42;;;;;;;10.55;2.30;;;13.00;99.90;;;;;;5072269;28;20067;-74
2023/07/26 04:00:28;;;;;;;9.52;2.63;;;13.00;99.90;;;;;;5091411;28;20131;-77
2023/07/26 04:03:14;;;;;;;12.55;2.47;;;13.00;99.90;;;;;;5091863;28;20058;-80
2023/07/26 04:06:00;;;;;;;12.98;2.85;;;13.00;99.90;;;;;;5090596;28;20592;-77
2023/07/26 04:08:46;;;;;;;7.70;2.47;;;13.00;99.90;;;;;;5089708;28;20056;-77
2023/07/26 04:11:33;;;;;;;6.88;1.98;;;13.00;99.90;;;;;;5089807;28;20048;-80
2023/07/26 04:14:19;;;;;;;8.35;2.38;;;13.00;99.90;;;;;;5072424;28;20058;-77
2023/07/26 04:17:05;;;;;;;6.72;1.77;;;12.90;99.90;;;;;;5090817;28;20044;-76
2023/07/26 04:19:51;;;;;;;6.10;2.03;;;12.90;99.90;;;;;;5069837;28;20861;-77
2023/07/26 04:22:38;;;;;;;13.48;2.05;;;12.90;99.90;;;;;;5069167;28;20052;-79
2023/07/26 04:25:24;;;;;;;6.60;1.85;;;13.00;99.90;;;;;;5070880;28;20515;-78
2023/07/26 04:28:10;;;;;;;7.18;2.03;;;13.00;99.90;;;;;;5056169;28;20082;-78
2023/07/26 04:30:56;;;;;;;7.80;1.73;;;13.00;99.90;;;;;;5070495;28;20063;-77
2023/07/26 04:33:42;;;;;;;7.10;1.92;;;13.00;99.90;;;;;;5053081;28;20114;-77
2023/07/26 04:36:28;;;;;;;8.02;1.98;;;13.10;99.90;;;;;;5070262;28;20054;-77
2023/07/26 04:39:14;;;;;;;9.45;1.90;;;13.10;99.90;;;;;;5070340;28;20060;-77
2023/07/26 04:42:00;;;;;;;4.78;1.50;;;13.20;99.90;;;;;;5056014;28;20041;-78
2023/07/26 04:44:47;;;;;;;8.90;1.70;;;13.20;99.90;;;;;;5052889;28;20056;-79
2023/07/26 04:47:33;;;;;;;5.25;2.42;;;13.20;99.90;;;;;;5070923;28;20052;-78
2023/07/26 04:50:19;;;;;;;4.72;1.80;;;13.20;99.90;;;;;;5071185;28;20057;-75
2023/07/26 04:53:05;;;;;;;8.07;1.92;;;13.30;99.90;;;;;;5053341;28;20382;-78
2023/07/26 04:55:52;;;;;;;6.88;2.38;;;13.30;99.90;;;;;;5072389;28;20072;-76
2023/07/26 04:58:38;;;;;;;9.82;2.03;;;13.40;99.90;;;;;;5070643;28;20052;-77
2023/07/26 05:01:24;;;;;;;5.18;1.52;;;13.50;99.90;;;;;;5039379;28;20147;-78
2023/07/26 05:04:10;;;;;;;8.63;2.40;;;13.50;99.90;;;;;;5053207;28;20053;-77
2023/07/26 05:06:56;;;;;;;6.85;2.30;;;13.60;99.90;;;;;;5052849;28;20052;-77
2023/07/26 05:09:42;;;;;;;17.80;4.40;;;13.60;99.90;;;;;;5051914;28;20503;-77
2023/07/26 05:12:29;;;;;;;11.48;3.17;;;13.60;99.90;;;;;;5068886;28;20041;-76
2023/07/26 05:15:15;;;;;;;10.27;2.60;;;13.60;99.90;;;;;;5052302;28;20099;-78
2023/07/26 05:18:01;;;;;;;11.32;2.55;;;13.50;99.90;;;;;;5076879;28;20060;-78
2023/07/26 05:20:51;;;;;;;6.47;2.40;;;13.50;99.90;;;;;;5088099;28;20077;-75
2023/07/26 05:23:37;;;;;;;9.55;2.22;;;13.40;99.90;;;;;;5088571;28;20098;-76
2023/07/26 05:26:23;;;;;;;7.60;2.30;;;13.50;99.90;;;;;;5088816;28;20056;-77
2023/07/26 05:29:09;;;;;;;15.98;5.03;;;13.50;99.90;;;;;;5075145;28;20082;-79
2023/07/26 05:31:55;;;;;;;11.65;3.35;;;13.50;99.90;;;;;;5092233;28;20439;-79
2023/07/26 05:34:41;;;;;;;14.07;2.80;;;13.40;99.90;;;;;;5091830;28;20055;-79
2023/07/26 05:37:29;;;;;;;7.80;2.88;;;13.40;99.90;;;;;;5092677;28;20040;-79
2023/07/26 05:40:15;;;;;;;8.90;2.50;;;13.30;99.90;;;;;;5091513;28;20044;-78
2023/07/26 05:43:01;;;;;;;10.23;2.80;;;13.20;99.90;;;;;;5077080;28;20134;-76
2023/07/26 05:45:48;;;;;;;6.15;2.33;;;13.20;99.90;;;;;;5073455;28;20086;-76
2023/07/26 05:48:34;;;;;;;8.15;2.60;;;13.20;99.90;;;;;;5090943;28;20052;-76
2023/07/26 05:51:20;;;;;;;7.55;2.60;;;13.20;99.90;;;;;;5091405;28;20586;-78
2023/07/26 05:54:06;;;;;;;7.40;2.15;;;13.20;99.90;;;;;;5073709;28;20136;-76
2023/07/26 05:56:52;;;;;;;6.47;2.40;;;13.20;99.90;;;;;;5092586;28;20044;-75
2023/07/26 05:59:38;;;;;;;7.72;2.70;;;13.30;99.90;;;;;;5062934;28;20560;-76
2023/07/26 06:02:24;;;;;;;9.85;2.90;;;13.30;99.90;;;;;;5092362;28;20048;-77
2023/07/26 06:05:11;;;;;;;6.38;2.47;;;13.40;99.90;;;;;;5077745;28;20384;-77
2023/07/26 06:07:57;;;;;;;10.23;3.25;;;13.50;99.90;;;;;;5073206;28;20052;-78
2023/07/26 06:10:43;;;;;;;8.75;3.05;;;13.60;99.90;;;;;;5092264;28;20138;-78
2023/07/26 06:13:29;;;;;;;6.65;2.60;;;13.90;99.90;;;;;;5075965;28;20134;-77
2023/07/26 06:16:15;;;;;;;8.70;2.45;;;14.00;99.90;;;;;;5078153;28;20097;-77
2023/07/26 06:19:01;;;;;;;6.20;2.08;;;14.00;99.90;;;;;;5045595;28;1373841;-77
2023/07/26 06:21:47;;;;;;;7.38;2.00;;;14.00;99.90;;;;;;5093856;28;20507;-76
2023/07/26 06:24:34;;;;;;;5.85;2.28;;;14.30;99.90;;;;;;5075931;28;20044;-79
2023/07/26 06:27:22;;;;;;;7.63;2.60;;;14.40;99.90;;;;;;5075545;28;20048;-77
2023/07/26 06:30:11;;;;;;;10.45;3.45;;;14.60;99.90;;;;;;5076027;28;20538;-77
2023/07/26 06:32:58;;;;;;;5.28;2.38;;;14.80;99.90;;;;;;5078475;28;20048;-78
2023/07/26 06:35:44;;;;;;;5.43;2.15;;;14.90;99.90;;;;;;5094176;28;20051;-75
2023/07/26 06:38:30;;;;;;;4.40;1.90;;;15.00;99.90;;;;;;5093780;28;20369;-79
2023/07/26 06:41:16;;;;;;;6.07;2.15;;;15.10;99.90;;;;;;5092455;28;20044;-79
2023/07/26 06:44:02;;;;;;;10.15;2.55;;;15.20;99.90;;;;;;5092723;28;20052;-77
2023/07/26 06:46:49;;;;;;;5.10;2.22;;;15.30;99.90;;;;;;5092993;28;20051;-78
2023/07/26 06:49:35;;;;;;;5.78;1.85;;;15.30;99.90;;;;;;5093231;28;20076;-71
2023/07/26 06:52:21;;;;;;;7.30;2.00;;;15.30;99.90;;;;;;5092736;28;20138;-75
2023/07/26 06:55:08;;;;;;;6.40;1.73;;;15.40;99.90;;;;;;5093843;28;20185;-77
2023/07/26 06:57:54;;;;;;;4.03;1.70;;;15.60;99.90;;;;;;5093487;28;20040;-76
2023/07/26 07:00:43;;;;;;;4.95;1.50;;;15.60;99.90;;;;;;5090967;28;20048;-77
2023/07/26 07:03:30;;;;;;;2.85;1.10;;;15.80;99.90;;;;;;5071627;28;20785;-77
2023/07/26 07:06:16;;;;;;;3.58;1.58;;;15.90;99.90;;;;;;5070719;28;20106;-77
2023/07/26 07:09:04;;;;;;;3.58;1.33;;;16.00;99.90;;;;;;5066272;28;20055;-77
2023/07/26 07:11:50;;;;;;;5.22;1.85;;;16.40;99.90;;;;;;5091299;28;20054;-74
2023/07/26 07:14:36;;;;;;;4.43;1.52;;;16.50;99.90;;;;;;5090879;28;20063;-72
2023/07/26 07:17:23;;;;;;;3.47;1.50;;;16.60;99.90;;;;;;5091935;28;20412;-73
2023/07/26 07:20:09;;;;;;;4.57;1.67;;;16.40;99.90;;;;;;5090830;28;20048;-73
2023/07/26 07:22:55;;;;;;;3.95;1.70;;;16.30;99.90;;;;;;5092850;28;20609;-77
2023/07/26 07:25:41;;;;;;;4.22;1.58;;;16.20;99.90;;;;;;5092912;28;20457;-71
2023/07/26 07:28:28;;;;;;;4.70;1.40;;;16.10;99.90;;;;;;5091041;28;20079;-72
2023/07/26 07:31:14;;;;;;;3.35;1.45;;;16.00;99.90;;;;;;5091194;28;20451;-71
2023/07/26 07:34:00;;;;;;;3.15;1.20;;;15.80;99.90;;;;;;5091532;28;20113;-76
2023/07/26 07:36:46;;;;;;;3.72;1.08;;;15.70;99.90;;;;;;5090563;28;20048;-72
2023/07/26 07:39:32;;;;;;;2.85;1.00;;;15.80;99.90;;;;;;5090160;28;20508;-73
2023/07/26 07:42:18;;;;;;;4.40;1.35;;;15.80;99.90;;;;;;5090804;28;20036;-77
2023/07/26 07:45:05;;;;;;;3.25;1.23;;;15.70;99.90;;;;;;5089786;28;20126;-76
2023/07/26 07:47:51;;;;;;;3.20;1.35;;;15.80;99.90;;;;;;5076814;28;20105;-75
2023/07/26 07:50:37;;;;;;;5.15;2.13;;;16.20;99.90;;;;;;5090261;28;20436;-80
2023/07/26 07:53:24;;;;;;;3.63;1.30;;;16.40;99.90;;;;;;5090012;28;20125;-78
2023/07/26 07:56:10;;;;;;;2.72;1.20;;;16.60;99.90;;;;;;5058657;28;20056;-75
2023/07/26 07:58:57;;;;;;;4.03;1.30;;;16.80;99.90;;;;;;5071632;28;20044;-76
2023/07/26 08:01:43;;;;;;;6.20;1.40;;;17.10;99.90;;;;;;5091879;28;20116;-81
2023/07/26 08:04:29;;;;;;;3.60;1.33;;;17.10;99.90;;;;;;5072738;28;20135;-81
2023/07/26 08:07:15;;;;;;;4.93;1.50;;;17.10;99.90;;;;;;5090806;28;20101;-77
2023/07/26 08:10:01;;;;;;;3.45;1.30;;;17.00;99.90;;;;;;5092136;28;20404;-80
2023/07/26 08:12:47;;;;;;;4.07;1.60;;;17.00;99.90;;;;;;5090388;28;20465;-77
2023/07/26 08:15:37;;;;;;;4.82;1.40;;;17.30;99.90;;;;;;5090258;28;20514;-75
2023/07/26 08:18:23;;;;;;;4.60;1.58;;;17.50;99.90;;;;;;5089075;28;20766;-78
2023/07/26 08:21:12;;;;;;;5.90;1.30;;;17.70;99.90;;;;;;5091160;28;20051;-77
2023/07/26 08:23:58;;;;;;;6.35;1.80;;;17.50;99.90;;;;;;5089835;28;20044;-79
2023/07/26 08:26:44;;;;;;;4.68;2.13;;;17.40;99.90;;;;;;5089756;28;20142;-76
2023/07/26 08:29:30;;;;;;;6.38;2.13;;;17.10;99.90;;;;;;5089736;28;20044;-77
2023/07/26 08:32:17;;;;;;;5.45;2.30;;;16.90;99.90;;;;;;5058062;28;20148;-75
2023/07/26 08:35:04;;;;;;;6.22;1.80;;;16.80;99.90;;;;;;5076683;28;20400;-77
2023/07/26 08:37:50;;;;;;;4.53;1.80;;;16.60;99.90;;;;;;5089128;28;20504;-75
2023/07/26 08:40:40;;;;;;;5.03;1.80;;;16.50;99.90;;;;;;5089623;28;20147;-79
2023/07/26 08:43:31;;;;;;;3.47;1.30;;;16.50;99.90;;;;;;5090117;28;20511;-80
2023/07/26 08:46:18;;;;;;;4.05;1.90;;;16.60;99.90;;;;;;5075204;28;20072;-82
2023/07/26 08:49:05;;;;;;;4.72;1.63;;;16.70;99.90;;;;;;5090808;28;20051;-78
2023/07/26 08:51:51;;;;;;;4.20;1.75;;;16.80;99.90;;;;;;5089313;28;20404;-78
2023/07/26 08:54:38;;;;;;;4.40;1.65;;;16.80;99.90;;;;;;5071447;28;20067;-76
2023/07/26 08:57:24;;;;;;;4.63;1.42;;;17.20;99.90;;;;;;5088877;28;20055;-79
2023/07/26 09:00:11;;;;;;;5.07;1.38;;;17.40;99.90;;;;;;5090808;28;20048;-75
2023/07/26 09:03:02;;;;;;;6.03;1.77;;;17.40;99.90;;;;;;5091569;28;20047;-75
2023/07/26 09:06:05;;;;;;;4.45;1.75;;;17.30;99.90;;;;;;5079077;28;20074;-79
2023/07/26 09:08:52;;;;;;;5.95;1.83;;;17.20;99.90;;;;;;5078566;28;20052;-72
2023/07/26 09:11:49;;;;;;;4.47;1.75;;;17.20;99.90;;;;;;5093416;28;20047;-79
2023/07/26 09:14:35;;;;;;;6.45;2.42;;;17.50;99.90;;;;;;5092752;28;20519;-78
2023/07/26 09:17:22;;;;;;;6.22;2.38;;;17.70;99.90;;;;;;5092429;28;20059;-77
2023/07/26 09:20:20;;;;;;;4.03;1.55;;;18.10;99.90;;;;;;5075524;28;20123;-74
2023/07/26 09:23:10;;;;;;;5.57;2.00;;;18.40;99.90;;;;;;5091127;28;20522;-79
2023/07/26 09:25:56;;;;;;;5.57;2.25;;;18.60;99.90;;;;;;5092889;28;20499;-76
2023/07/26 09:28:52;;;;;;;9.77;2.80;;;18.70;99.90;;;;;;5093780;28;20086;-79
2023/07/26 09:31:42;;;;;;;6.05;2.40;;;18.90;99.90;;;;;;5094009;28;20087;-79
2023/07/26 09:34:29;;;;;;;6.85;1.80;;;19.20;99.90;;;;;;5079872;28;20055;-83
2023/07/26 09:37:21;;;;;;;4.43;1.67;;;19.30;99.90;;;;;;5061557;28;20564;-80
2023/07/26 09:40:08;;;;;;;4.38;1.77;;;19.10;99.90;;;;;;5093577;28;20048;-79
2023/07/26 09:42:54;;;;;;;4.15;1.52;;;18.70;99.90;;;;;;5092646;28;20040;-77
2023/07/26 09:45:41;;;;;;;4.13;1.92;;;18.40;99.90;;;;;;5092762;28;20051;-81
2023/07/26 09:48:27;;;;;;;5.78;2.00;;;18.30;99.90;;;;;;5075313;28;20575;-83
2023/07/26 09:51:14;;;;;;;5.20;2.00;;;18.30;99.90;;;;;;5097739;28;20048;-81
2023/07/26 09:54:00;;;;;;;5.47;1.95;;;18.70;99.90;;;;;;5076162;28;20052;-81
2023/07/26 09:56:47;;;;;;;7.35;1.55;;;18.90;99.90;;;;;;5093891;28;20576;-80
2023/07/26 09:59:36;;;;;;;4.60;1.80;;;18.80;99.90;;;;;;5091172;28;20135;-76
2023/07/26 10:02:23;;;;;;;4.72;2.00;;;19.10;99.90;;;;;;5094345;28;20047;-78
2023/07/26 10:05:10;;;;;;;6.38;1.45;;;18.90;99.90;;;;;;5078029;28;20055;-80
2023/07/26 10:07:56;;;;;;;10.10;1.73;;;18.50;99.90;;;;;;5092356;28;20048;-80
2023/07/26 10:10:43;;;;;;;6.18;1.50;;;18.00;99.90;;;;;;5077165;28;20557;-75
2023/07/26 10:13:31;;;;;;;14.40;2.35;;;17.50;99.90;;;;;;5071158;28;20060;-82
2023/07/26 10:16:18;;;;;;;11.68;1.77;;;17.10;99.90;;;;;;5093970;28;20051;-83
2023/07/26 10:19:06;;;;;;;13.02;2.00;;;17.00;99.90;;;;;;5093905;28;20048;-78
2023/07/26 10:21:52;;;;;;;11.98;2.28;;;17.10;99.90;;;;;;5093501;28;20086;-75
2023/07/26 10:24:42;;;;;;;12.05;2.45;;;17.40;99.90;;;;;;5075405;28;20063;-78
2023/07/26 10:27:28;;;;;;;9.90;1.30;;;17.90;99.90;;;;;;5092563;28;20052;-75
2023/07/26 10:30:15;;;;;;;3.67;0.90;;;18.00;99.90;;;;;;5078289;28;20075;-81
2023/07/26 10:33:02;;;;;;;4.38;1.00;;;17.90;99.90;;;;;;5072501;28;20630;-77
2023/07/26 10:35:48;;;;;;;7.47;1.23;;;18.10;99.90;;;;;;5056378;28;20374;-75
2023/07/26 10:38:40;;;;;;;4.95;0.95;;;18.10;99.90;;;;;;5072745;28;20049;-78
2023/07/26 10:41:29;;;;;;;4.47;0.57;;;18.10;99.90;;;;;;5072488;28;20109;-76
2023/07/26 10:44:15;;;;;;;1.23;0.43;;;18.30;99.90;;;;;;5057629;28;20072;-75
2023/07/26 10:47:02;;;;;;;1.70;0.60;;;18.50;99.90;;;;;;5072319;28;20456;-76
2023/07/26 10:49:49;;;;;;;2.58;0.60;;;18.90;99.90;;;;;;5073549;28;20055;-76
2023/07/26 10:52:36;;;;;;;1.00;0.32;;;19.10;99.90;;;;;;5081859;28;20128;-75
2023/07/26 10:55:27;;;;;;;2.15;0.90;;;19.30;99.90;;;;;;5083661;28;20090;-77
2023/07/26 10:58:13;;;;;;;3.22;0.98;;;19.70;99.90;;;;;;5070209;28;20515;-82
2023/07/26 11:01:05;;;;;;;2.85;0.80;;;20.00;99.90;;;;;;5071850;28;20056;-80
2023/07/26 11:03:56;;;;;;;3.60;0.63;;;20.20;99.90;;;;;;5071749;28;20412;-79
2023/07/26 11:07:03;;;;;;;6.20;0.90;;;20.40;99.90;;;;;;5040201;28;20056;-78
2023/07/26 11:09:50;;;;;;;5.38;0.80;;;20.90;99.90;;;;;;5071329;28;20571;-80
2023/07/26 11:12:36;;;;;;;5.53;0.73;;;21.10;99.90;;;;;;5072088;28;20520;-79
2023/07/26 11:15:30;;;;;;;2.85;0.85;;;21.60;99.90;;;;;;5056990;28;20127;-77
2023/07/26 11:18:18;;;;;;;6.88;2.38;;;21.40;99.90;;;;;;5070971;28;20501;-77
2023/07/26 11:21:04;;;;;;;5.72;1.48;;;21.70;99.90;;;;;;5071149;28;20052;-80
2023/07/26 11:23:50;;;;;;;4.35;1.40;;;21.60;99.90;;;;;;5054479;28;20083;-79
2023/07/26 11:26:40;;;;;;;4.35;1.10;;;21.50;99.90;;;;;;5070501;28;20052;-81
2023/07/26 11:29:27;;;;;;;3.90;1.65;;;21.30;99.50;;;;;;5055993;28;20059;-82
2023/07/26 11:32:24;;;;;;;6.05;1.33;;;21.20;99.80;;;;;;5052970;28;20052;-76
2023/07/26 11:35:10;;;;;;;5.15;1.35;;;21.30;99.90;;;;;;5071253;28;20055;-80
2023/07/26 11:37:56;;;;;;;3.22;1.20;;;21.40;99.90;;;;;;5071472;28;20060;-81
2023/07/26 11:40:43;;;;;;;5.90;1.40;;;21.60;99.90;;;;;;5071121;28;20084;-78
2023/07/26 11:43:30;;;;;;;5.78;1.60;;;21.90;99.60;;;;;;5070748;28;20065;-78
2023/07/26 11:46:26;;;;;;;3.88;1.40;;;22.20;99.00;;;;;;5070685;28;20056;-79
2023/07/26 11:49:20;;;;;;;5.60;2.40;;;22.40;99.20;;;;;;5070167;28;20099;-78
2023/07/26 11:52:14;;;;;;;4.55;0.88;;;22.50;98.70;;;;;;5071532;28;20056;-79
2023/07/26 11:55:03;;;;;;;4.10;1.52;;;22.90;99.20;;;;;;5071109;28;20044;-79
2023/07/26 11:57:50;;;;;;;5.15;1.52;;;23.10;98.70;;;;;;5070209;28;20040;-77
2023/07/26 12:00:40;;;;;;;8.98;1.83;;;22.80;98.20;;;;;;5052129;28;20060;-81
2023/07/26 12:03:27;;;;;;;3.85;1.52;;;22.70;97.70;;;;;;5071510;28;20059;-79
2023/07/26 12:06:14;;;;;;;4.47;1.50;;;22.90;98.00;;;;;;5070332;28;20056;-80
2023/07/26 12:09:11;;;;;;;4.10;1.00;;;23.30;98.00;;;;;;5053702;28;20518;-79
2023/07/26 12:11:59;;;;;;;3.65;1.10;;;23.40;97.40;;;;;;5054444;28;20048;-79
2023/07/26 12:14:46;;;;;;;4.65;1.33;;;24.00;97.60;;;;;;5052897;28;20080;-80
2023/07/26 12:17:32;;;;;;;3.50;1.10;;;24.10;96.70;;;;;;5070054;28;20075;-80
2023/07/26 12:20:18;;;;;;;7.53;1.70;;;24.00;96.40;;;;;;5070746;28;20102;-78
2023/07/26 12:23:05;;;;;;;4.70;1.52;;;24.40;95.90;;;;;;5055953;28;20044;-79
2023/07/26 12:25:56;;;;;;;4.93;1.33;;;24.90;95.20;;;;;;5070575;28;20234;-78
2023/07/26 12:28:43;;;;;;;3.90;1.10;;;25.00;94.10;;;;;;5070182;28;20048;-82
2023/07/26 12:31:31;;;;;;;6.00;1.30;;;25.20;94.60;;;;;;5070121;28;20053;-77
2023/07/26 12:34:18;;;;;;;4.38;1.10;;;24.70;94.20;;;;;;5069658;28;20445;-78
2023/07/26 12:37:04;;;;;;;11.10;1.50;;;25.30;94.60;;;;;;5055281;28;20131;-78
2023/07/26 12:39:51;;;;;;;5.38;1.30;;;25.50;94.20;;;;;;5069924;28;20063;-80
2023/07/26 12:42:37;;;;;;;6.50;1.58;;;25.50;93.90;;;;;;5070133;28;20088;-80
2023/07/26 12:45:23;;;;;;;8.85;1.42;;;25.50;94.20;;;;;;5056829;28;20147;-80
2023/07/26 12:48:09;;;;;;;5.60;1.60;;;25.70;93.50;;;;;;5072858;28;20102;-79
2023/07/26 12:50:56;;;;;;;5.43;1.23;;;25.70;92.90;;;;;;5053928;28;20049;-80
2023/07/26 12:53:43;;;;;;;4.32;1.17;;;25.80;92.90;;;;;;5068764;28;20503;-82
2023/07/26 12:56:29;;;;;;;3.33;1.25;;;26.00;92.60;;;;;;5069562;28;20130;-79
2023/07/26 12:59:15;;;;;;;4.05;1.10;;;25.50;92.20;;;;;;5070272;28;20141;-81
2023/07/26 13:02:01;;;;;;;4.28;1.08;;;25.90;92.40;;;;;;5071215;28;20049;-79
2023/07/26 13:04:47;;;;;;;3.15;1.00;;;25.90;91.50;;;;;;5071829;28;20072;-79
2023/07/26 13:07:33;;;;;;;4.75;1.60;;;25.30;91.60;;;;;;5070385;28;20471;-78
2023/07/26 13:10:21;;;;;;;4.93;1.40;;;25.00;91.80;;;;;;5068819;28;20141;-78
2023/07/26 13:13:07;;;;;;;4.85;1.40;;;25.00;92.10;;;;;;5069399;28;20547;-80
2023/07/26 13:15:54;;;;;;;5.38;1.70;;;25.30;92.70;;;;;;5070817;28;20044;-80
2023/07/26 13:18:40;;;;;;;6.32;1.52;;;25.00;92.30;;;;;;5068464;28;20068;-79
2023/07/26 13:21:26;;;;;;;3.75;1.27;;;24.60;92.90;;;;;;5069354;28;20051;-77
2023/07/26 13:24:12;;;;;;;3.78;0.93;;;25.00;93.80;;;;;;5069975;28;20412;-79
2023/07/26 13:26:58;;;;;;;3.25;1.13;;;25.20;92.90;;;;;;5069239;28;20081;-78
2023/07/26 13:29:44;;;;;;;3.88;1.20;;;25.80;92.20;;;;;;5069369;28;20130;-79
2023/07/26 13:32:31;;;;;;;3.05;0.80;;;25.90;91.40;;;;;;5055829;28;20048;-78
2023/07/26 13:35:17;;;;;;;5.63;1.38;;;26.60;91.60;;;;;;5069056;28;20060;-84
2023/07/26 13:38:03;;;;;;;4.45;1.50;;;26.80;90.70;;;;;;5052286;28;20052;-83
2023/07/26 13:40:49;;;;;;;4.10;1.70;;;26.90;90.60;;;;;;5070031;28;20135;-81
2023/07/26 13:43:35;;;;;;;4.03;1.25;;;27.40;89.50;;;;;;5069342;28;20048;-80
2023/07/26 13:46:21;;;;;;;5.28;1.20;;;26.90;89.00;;;;;;5070048;28;20187;-79
2023/07/26 13:49:07;;;;;;;6.07;1.20;;;26.20;88.90;;;;;;5071576;28;20088;-79
2023/07/26 13:51:53;;;;;;;4.80;1.00;;;26.00;90.20;;;;;;5042567;28;20056;-80
2023/07/26 13:54:40;;;;;;;3.83;1.55;;;26.00;90.60;;;;;;5073700;28;20187;-82
2023/07/26 13:57:27;;;;;;;4.70;1.42;;;26.60;91.00;;;;;;5058767;28;20056;-80
2023/07/26 14:00:13;;;;;;;6.40;1.33;;;26.00;90.90;;;;;;5072731;28;20059;-80
2023/07/26 14:02:59;;;;;;;7.68;1.98;;;26.40;90.80;;;;;;5074077;28;20565;-79
2023/07/26 14:05:45;;;;;;;5.95;1.55;;;25.90;90.80;;;;;;5055524;28;20084;-82
2023/07/26 14:08:31;;;;;;;5.30;1.67;;;25.50;90.70;;;;;;5073470;28;20055;-80
2023/07/26 14:11:18;;;;;;;4.07;1.33;;;26.00;90.80;;;;;;5073354;28;20404;-80
2023/07/26 14:14:04;;;;;;;5.32;1.38;;;26.80;90.80;;;;;;5072396;28;20045;-81
2023/07/26 14:16:50;;;;;;;4.30;1.17;;;27.30;90.10;;;;;;5072578;28;20543;-80
2023/07/26 14:19:36;;;;;;;4.22;1.10;;;27.70;86.30;;;;;;5073475;28;20045;-81
2023/07/26 14:22:22;;;;;;;3.85;1.10;;;28.20;86.00;;;;;;5057853;28;20045;-81
2023/07/26 14:25:09;;;;;;;4.43;1.20;;;28.10;84.30;;;;;;5053374;28;20099;-82
2023/07/26 14:27:55;;;;;;;2.88;1.15;;;27.80;83.90;;;;;;5072027;28;20067;-81